EHGG/GRQ METAR and TAF weather

Enter ICAO airport designator
Station Type Date Time Source
EHGG METAR 2019/10/23 08:25 UTC NOAA

EHGG 230825Z AUTO 10002KT 9000 NSC 09/09 Q1019 TEMPO 4000 BR


Station Type Date Time Source
EHGG Decoded METAR 2019/10/23 08:25 UTC NOAA

Groningen Airport Eelde, Netherlands (EHGG) 53-08N 006-35E 4M
Oct 23, 2019 - 04:25 AM EDT / 2019.10.23 0825 UTC
Wind: from the E (100 degrees) at 2 MPH (2 KT):0
Visibility: 5 mile(s):0
Temperature: 48 F (9 C)
Dew Point: 48 F (9 C)
Relative Humidity: 100%
Pressure (altimeter): 30.09 in. Hg (1019 hPa)
ob: EHGG 230825Z AUTO 10002KT 9000 NSC 09/09 Q1019 TEMPO 4000 BR
cycle: 8

Station Type Date Time Source
EHGG TAF 2019/10/23 06:27 UTC NOAA

TAF EHGG 230458Z 2306/2412 VRB03KT 0800 FG NSC
BECMG 2307/2310 4000 BR
BECMG 2310/2312 09010KT 9999 NSW SCT015
BECMG 2319/2322 12008KT 4000 BR PROB40
TEMPO 2322/2407 1200 BCFG
BECMG 2407/2409 20010KT CAVOK

Example: see airport list